Time;durP1;ratioP1;P1;durP2;ratioP2;P2;SDS_P1;SDS_P2;PMS_P1;PMS_P2;Temp;Humidity;BMP_temperature;BMP_pressure;BME280_temperature;BME280_humidity;BME280_pressure;Samples;Min_cycle;Max_cycle;Signal;HPM_P1;HPM_P2
2023/06/09 00:02:03;;;;;;;13.23;11.80;;;11.90;1.00;;;;;;8256997;28;20203;-69
2023/06/09 00:06:08;;;;;;;11.80;10.73;;;11.80;1.00;;;;;;8267398;28;20226;-69
2023/06/09 00:10:10;;;;;;;12.83;11.63;;;11.70;1.00;;;;;;8270829;28;20178;-70
2023/06/09 00:14:11;;;;;;;13.77;12.47;;;11.70;1.00;;;;;;8260178;28;20186;-70
2023/06/09 00:18:15;;;;;;;13.07;11.67;;;11.60;1.00;;;;;;8275728;28;20301;-71
2023/06/09 00:22:20;;;;;;;13.57;12.37;;;11.50;58.00;;;;;;8272434;28;20185;-70
2023/06/09 00:26:20;;;;;;;14.03;12.63;;;11.50;99.20;;;;;;8270371;28;20205;-69
2023/06/09 00:30:22;;;;;;;12.87;11.77;;;11.40;99.90;;;;;;8268767;28;20251;-69
2023/06/09 00:34:24;;;;;;;13.50;12.20;;;11.40;99.90;;;;;;8266982;28;20194;-69
2023/06/09 00:38:25;;;;;;;12.97;11.77;;;11.40;99.90;;;;;;8260546;28;20187;-69
2023/06/09 00:42:26;;;;;;;12.13;11.03;;;11.30;99.90;;;;;;8270746;28;20200;-69
2023/06/09 00:46:27;;;;;;;11.83;10.73;;;11.20;99.90;;;;;;8258470;28;20215;-69
2023/06/09 00:50:31;;;;;;;12.13;10.77;;;11.10;99.90;;;;;;8266192;28;20191;-69
2023/06/09 00:54:33;;;;;;;12.20;10.80;;;11.10;99.90;;;;;;8284309;28;20215;-70
2023/06/09 00:58:35;;;;;;;12.90;11.70;;;11.00;99.90;;;;;;8269582;28;20211;-70
2023/06/09 01:02:38;;;;;;;13.17;12.00;;;10.90;99.90;;;;;;8272657;28;20294;-70
2023/06/09 01:07:24;;;;;;;14.40;13.10;;;10.90;99.90;;;;;;8253215;28;20255;-70
2023/06/09 01:11:33;;;;;;;13.03;11.83;;;10.90;99.90;;;;;;8258057;28;20188;-70
2023/06/09 01:15:42;;;;;;;12.73;11.43;;;10.80;99.90;;;;;;8266616;28;20284;-70
2023/06/09 01:19:53;;;;;;;13.27;12.17;;;10.80;99.90;;;;;;8287640;28;20194;-69
2023/06/09 01:24:09;;;;;;;13.13;11.93;;;10.80;1.00;;;;;;8252460;28;20184;-69
2023/06/09 01:28:20;;;;;;;13.40;12.10;;;10.80;99.90;;;;;;8268762;28;20233;-69
2023/06/09 01:32:26;;;;;;;14.73;13.33;;;10.80;99.90;;;;;;8256240;28;20213;-70
2023/06/09 01:36:29;;;;;;;13.40;12.20;;;10.70;99.90;;;;;;8269135;28;20237;-70
2023/06/09 01:40:31;;;;;;;14.87;13.50;;;10.70;99.90;;;;;;8280742;28;20252;-70
2023/06/09 01:44:36;;;;;;;14.90;13.50;;;10.70;1.00;;;;;;8252782;28;20233;-69
2023/06/09 01:49:10;;;;;;;14.53;13.23;;;10.70;1.00;;;;;;8254432;28;20291;-69
2023/06/09 01:53:18;;;;;;;14.60;13.17;;;10.60;99.90;;;;;;8282572;28;20194;-69
2023/06/09 01:57:32;;;;;;;14.03;12.63;;;10.60;99.90;;;;;;8256638;28;20199;-69
2023/06/09 02:01:35;;;;;;;14.83;13.53;;;10.60;1.00;;;;;;8270091;28;20227;-69
2023/06/09 02:05:37;;;;;;;15.40;13.93;;;10.60;1.00;;;;;;8266145;28;20208;-70
2023/06/09 02:09:38;;;;;;;15.43;14.00;;;10.60;99.90;;;;;;8263839;28;20208;-70
2023/06/09 02:13:43;;;;;;;12.70;11.50;;;10.50;99.90;;;;;;8254923;28;20185;-71
2023/06/09 02:17:44;;;;;;;14.00;12.70;;;10.40;99.90;;;;;;8251417;28;20191;-69
2023/06/09 02:21:45;;;;;;;13.37;12.07;;;10.40;99.90;;;;;;8279765;28;20198;-67
2023/06/09 02:25:46;;;;;;;14.30;13.00;;;10.30;1.00;;;;;;8266545;28;20226;-69
2023/06/09 02:29:50;;;;;;;13.43;12.23;;;10.30;99.90;;;;;;8266866;28;20185;-69
2023/06/09 02:33:51;;;;;;;14.57;13.10;;;10.30;1.00;;;;;;8247627;28;20183;-71
2023/06/09 02:37:54;;;;;;;13.77;12.43;;;10.30;99.90;;;;;;8282894;28;20197;-70
2023/06/09 02:41:55;;;;;;;15.53;14.10;;;10.30;99.90;;;;;;8246946;28;20193;-76
2023/06/09 02:45:56;;;;;;;15.63;14.23;;;10.30;1.00;;;;;;8266981;28;20233;-71
2023/06/09 02:49:57;;;;;;;16.10;14.60;;;10.40;99.90;;;;;;8245843;28;20190;-70
2023/06/09 02:53:58;;;;;;;14.73;13.37;;;10.30;99.90;;;;;;8267911;28;20183;-68
2023/06/09 02:57:59;;;;;;;14.37;12.97;;;10.30;99.90;;;;;;8267084;28;20183;-72
2023/06/09 03:02:00;;;;;;;13.70;12.47;;;10.40;99.90;;;;;;8253916;28;20188;-72
2023/06/09 03:06:07;;;;;;;13.43;12.23;;;10.50;99.90;;;;;;8265296;28;20239;-71
2023/06/09 03:10:08;;;;;;;14.17;12.77;;;10.60;99.90;;;;;;8264696;28;20290;-72
2023/06/09 03:14:10;;;;;;;15.80;14.37;;;10.90;99.90;;;;;;8280418;28;20182;-72
2023/06/09 03:18:11;;;;;;;16.27;14.70;;;11.50;99.90;;;;;;8278591;28;20290;-72
2023/06/09 03:22:12;;;;;;;14.73;13.23;;;12.10;1.00;;;;;;8256904;28;20190;-73
2023/06/09 03:26:13;;;;;;;13.37;12.07;;;12.60;1.00;;;;;;8270628;28;20251;-72
2023/06/09 03:30:14;;;;;;;13.73;12.40;;;13.10;1.00;;;;;;8291946;28;20194;-70
2023/06/09 03:34:18;;;;;;;13.50;12.20;;;13.80;46.20;;;;;;8253174;28;20230;-72
2023/06/09 03:38:19;;;;;;;12.40;11.30;;;14.60;99.90;;;;;;8260203;28;20287;-71
2023/06/09 03:42:23;;;;;;;11.83;10.60;;;15.10;99.90;;;;;;8252939;28;20184;-71
2023/06/09 03:46:24;;;;;;;12.90;11.70;;;15.40;99.90;;;;;;8261114;28;20211;-71
2023/06/09 03:50:25;;;;;;;12.90;11.57;;;15.90;37.10;;;;;;8257175;28;20275;-69
2023/06/09 03:54:26;;;;;;;10.87;9.97;;;16.30;1.00;;;;;;8258044;28;20188;-70
2023/06/09 03:58:27;;;;;;;10.57;9.40;;;16.40;1.00;;;;;;8265714;28;20242;-70
2023/06/09 04:02:28;;;;;;;9.70;8.90;;;16.60;1.00;;;;;;8285041;28;20190;-70
2023/06/09 04:06:31;;;;;;;9.27;8.43;;;16.50;1.00;;;;;;8268915;28;20271;-72
2023/06/09 04:10:31;;;;;;;9.10;8.20;;;16.40;1.00;;;;;;8256930;28;20184;-71
2023/06/09 04:14:32;;;;;;;9.60;8.70;;;16.50;1.00;;;;;;8261544;28;20285;-71
2023/06/09 04:18:33;;;;;;;8.67;7.87;;;17.70;1.00;;;;;;8270860;28;20196;-72
2023/06/09 04:22:45;;;;;;;8.93;8.10;;;19.20;1.00;;;;;;8253377;28;20250;-71
2023/06/09 04:26:47;;;;;;;9.77;8.87;;;19.50;1.00;;;;;;8273393;28;20266;-72
2023/06/09 04:30:49;;;;;;;8.83;8.03;;;19.90;1.00;;;;;;8269829;28;20301;-72
2023/06/09 04:34:52;;;;;;;9.67;8.87;;;19.90;1.00;;;;;;8255527;28;20187;-72
2023/06/09 04:38:54;;;;;;;9.93;9.03;;;20.10;1.00;;;;;;8254224;28;20219;-71
2023/06/09 04:42:57;;;;;;;9.50;8.60;;;20.40;99.90;;;;;;8256968;28;20222;-71
2023/06/09 04:46:59;;;;;;;10.87;9.53;;;19.90;1.00;;;;;;8252776;28;20227;-71
2023/06/09 04:51:01;;;;;;;11.10;10.00;;;19.70;1.00;;;;;;8255185;28;20260;-71
2023/06/09 04:55:02;;;;;;;11.10;10.00;;;20.50;1.00;;;;;;8253579;28;20191;-71
2023/06/09 04:59:04;;;;;;;12.30;11.20;;;21.30;99.90;;;;;;8267743;28;20195;-71
2023/06/09 05:03:05;;;;;;;11.43;10.40;;;21.40;99.90;;;;;;8285310;28;20230;-71
2023/06/09 05:07:06;;;;;;;14.00;12.70;;;21.30;99.90;;;;;;8256863;28;20218;-71
2023/06/09 05:11:07;;;;;;;11.07;10.07;;;21.30;99.90;;;;;;8269310;28;20259;-71
2023/06/09 05:15:09;;;;;;;12.57;11.47;;;20.70;99.90;;;;;;8251991;28;20191;-70
2023/06/09 05:19:10;;;;;;;11.10;10.10;;;20.20;1.00;;;;;;8271500;28;20195;-71
2023/06/09 05:23:12;;;;;;;10.93;9.80;;;20.00;1.00;;;;;;8266822;28;20180;-71
2023/06/09 05:27:13;;;;;;;11.07;10.07;;;20.10;1.00;;;;;;8270456;28;20235;-71
2023/06/09 05:31:14;;;;;;;13.23;12.03;;;20.00;1.00;;;;;;8267158;28;20212;-71
2023/06/09 05:35:16;;;;;;;14.37;12.70;;;19.90;1.00;;;;;;8250008;28;20211;-71
2023/06/09 05:39:17;;;;;;;12.37;11.27;;;20.00;1.00;;;;;;8265829;28;20255;-71
2023/06/09 05:43:25;;;;;;;10.97;9.90;;;20.20;1.00;;;;;;8280343;28;20193;-71
2023/06/09 05:47:26;;;;;;;13.40;12.20;;;20.40;1.00;;;;;;8257316;28;20222;-71
2023/06/09 05:51:28;;;;;;;12.33;11.13;;;20.70;99.90;;;;;;8259230;28;20190;-70
2023/06/09 05:55:31;;;;;;;11.40;10.30;;;20.90;99.90;;;;;;8249459;28;20279;-70
2023/06/09 05:59:34;;;;;;;9.53;8.47;;;21.10;99.90;;;;;;8282545;28;20182;-70
2023/06/09 06:03:35;;;;;;;10.97;8.57;;;21.30;99.90;;;;;;8265918;28;20211;-71
2023/06/09 06:07:37;;;;;;;9.27;8.00;;;21.40;99.90;;;;;;8266032;28;20210;-72
2023/06/09 06:11:38;;;;;;;10.23;9.07;;;21.40;99.90;;;;;;8249543;28;20190;-74
2023/06/09 06:15:39;;;;;;;12.50;8.70;;;21.50;99.90;;;;;;8254895;28;20286;-70
2023/06/09 06:19:40;;;;;;;8.43;7.63;;;21.50;99.90;;;;;;8260681;28;20219;-73
2023/06/09 06:23:41;;;;;;;8.20;7.37;;;21.40;99.90;;;;;;8269733;28;20274;-73
2023/06/09 06:27:42;;;;;;;8.57;6.80;;;21.60;99.90;;;;;;8254501;28;20247;-72
2023/06/09 06:31:50;;;;;;;7.03;6.33;;;21.90;99.90;;;;;;8251587;28;20190;-72
2023/06/09 06:35:52;;;;;;;6.87;6.07;;;22.10;99.90;;;;;;8259843;28;20179;-74
2023/06/09 06:39:53;;;;;;;7.80;6.60;;;22.40;99.90;;;;;;8252482;28;20196;-67
2023/06/09 06:43:54;;;;;;;7.30;6.57;;;22.70;99.90;;;;;;8252298;28;20187;-69
2023/06/09 06:48:00;;;;;;;8.20;6.73;;;22.80;99.90;;;;;;8256410;28;20293;-72
2023/06/09 06:52:01;;;;;;;7.50;5.33;;;22.80;99.90;;;;;;8255922;28;20196;-72
2023/06/09 06:56:02;;;;;;;7.60;6.90;;;22.90;99.90;;;;;;8255403;28;20191;-68
2023/06/09 07:00:16;;;;;;;7.00;6.23;;;23.00;99.90;;;;;;8268413;28;20281;-70
2023/06/09 07:04:17;;;;;;;15.83;7.23;;;23.00;99.90;;;;;;8269358;28;20234;-69
2023/06/09 07:08:18;;;;;;;7.20;6.50;;;23.00;99.90;;;;;;8251308;28;20309;-71
2023/06/09 07:12:22;;;;;;;7.23;6.47;;;23.00;99.90;;;;;;8264209;28;20216;-71
2023/06/09 07:16:26;;;;;;;7.80;6.60;;;22.90;99.90;;;;;;8259735;28;20268;-71
2023/06/09 07:20:27;;;;;;;7.10;6.40;;;23.00;99.90;;;;;;8266587;28;20224;-73
2023/06/09 07:24:30;;;;;;;7.30;6.67;;;23.10;99.90;;;;;;8250437;28;20250;-72
2023/06/09 07:28:32;;;;;;;7.00;6.30;;;23.10;99.90;;;;;;8267580;28;20211;-75
2023/06/09 07:32:33;;;;;;;7.33;6.00;;;23.10;99.90;;;;;;8273120;28;20187;-72
2023/06/09 07:36:35;;;;;;;6.70;5.93;;;23.20;99.90;;;;;;8251762;28;20285;-73
2023/06/09 07:40:44;;;;;;;5.60;5.00;;;23.30;99.90;;;;;;8251920;28;20212;-73
2023/06/09 07:44:45;;;;;;;5.80;4.63;;;23.50;99.90;;;;;;8263681;28;20192;-69
2023/06/09 07:48:46;;;;;;;5.93;5.07;;;23.60;99.90;;;;;;8265838;28;20516;-72
2023/06/09 07:52:47;;;;;;;5.30;4.80;;;23.80;99.90;;;;;;8251993;28;20198;-73
2023/06/09 07:56:52;;;;;;;7.40;4.40;;;24.00;99.90;;;;;;8256281;28;20198;-71
2023/06/09 08:00:56;;;;;;;5.70;5.10;;;24.10;99.90;;;;;;8267692;28;20188;-68
2023/06/09 08:04:57;;;;;;;6.33;4.87;;;24.20;99.90;;;;;;8282099;28;20286;-70
2023/06/09 08:08:58;;;;;;;4.70;4.20;;;24.30;99.90;;;;;;8271470;28;20279;-75
2023/06/09 08:12:59;;;;;;;4.83;4.33;;;24.40;99.90;;;;;;8255860;28;20208;-73
2023/06/09 08:17:00;;;;;;;4.93;4.03;;;24.60;99.90;;;;;;8260852;28;20237;-69
2023/06/09 08:21:01;;;;;;;5.87;4.13;;;24.80;99.90;;;;;;8274277;28;20253;-68
2023/06/09 08:25:04;;;;;;;5.73;4.30;;;24.90;99.90;;;;;;8273654;28;20190;-70
2023/06/09 08:29:06;;;;;;;4.20;3.60;;;25.00;99.90;;;;;;8289747;28;20359;-69
2023/06/09 08:33:08;;;;;;;5.27;4.13;;;25.20;99.90;;;;;;8257648;28;20278;-71
2023/06/09 08:37:15;;;;;;;5.30;4.33;;;25.30;99.90;;;;;;8287833;28;20187;-72
2023/06/09 08:41:18;;;;;;;5.07;4.57;;;25.30;99.90;;;;;;8262982;28;20245;-71
2023/06/09 08:45:21;;;;;;;4.77;4.27;;;25.40;99.90;;;;;;8257010;28;20216;-69
2023/06/09 08:49:22;;;;;;;5.27;4.00;;;25.40;99.90;;;;;;8273397;28;20187;-72
2023/06/09 08:53:25;;;;;;;5.82;4.57;;;25.40;99.90;;;;;;8260025;28;20194;-71
2023/06/09 08:57:26;;;;;;;6.80;4.30;;;25.40;99.90;;;;;;8260173;28;20330;-74
2023/06/09 09:01:27;;;;;;;4.70;4.05;;;25.50;99.90;;;;;;8276924;28;20211;-71
2023/06/09 09:05:31;;;;;;;4.28;3.88;;;25.80;99.90;;;;;;8271343;28;20219;-73
2023/06/09 09:09:35;;;;;;;4.88;4.47;;;25.90;99.90;;;;;;8251117;28;20204;-72
2023/06/09 09:13:36;;;;;;;4.32;3.92;;;26.00;99.90;;;;;;8254777;28;20184;-73
2023/06/09 09:17:40;;;;;;;4.78;4.30;;;26.20;99.90;;;;;;8270738;28;20278;-73
2023/06/09 09:21:41;;;;;;;5.90;4.05;;;26.30;99.90;;;;;;8271035;28;20187;-68
2023/06/09 09:25:43;;;;;;;7.07;3.97;;;26.40;99.90;;;;;;8274177;28;20362;-74
2023/06/09 09:29:46;;;;;;;6.00;4.03;;;26.60;99.90;;;;;;8282187;28;20184;-70
2023/06/09 09:33:50;;;;;;;4.28;3.88;;;26.70;99.90;;;;;;8269728;28;20184;-75
2023/06/09 09:37:52;;;;;;;4.28;3.88;;;26.80;99.90;;;;;;8267024;28;20211;-71
2023/06/09 09:42:07;;;;;;;3.92;3.53;;;26.90;99.90;;;;;;8273252;28;20195;-71
2023/06/09 09:46:08;;;;;;;5.70;3.50;;;27.10;99.90;;;;;;8271355;28;20218;-72
2023/06/09 09:50:21;;;;;;;3.97;3.60;;;27.20;99.90;;;;;;8268111;28;20246;-73
2023/06/09 09:54:28;;;;;;;4.70;3.95;;;27.40;99.90;;;;;;8262176;28;20190;-68
2023/06/09 09:58:37;;;;;;;4.45;3.83;;;27.50;99.90;;;;;;8271090;28;20188;-73
2023/06/09 10:02:43;;;;;;;4.00;3.70;;;27.50;99.90;;;;;;8255416;28;20207;-72
2023/06/09 10:06:44;;;;;;;4.43;4.00;;;27.80;99.90;;;;;;8269475;28;20246;-69
2023/06/09 10:10:46;;;;;;;4.13;3.35;;;28.00;99.90;;;;;;8258522;28;20210;-71
2023/06/09 10:14:50;;;;;;;3.85;3.25;;;28.30;99.90;;;;;;8267807;28;20198;-73
2023/06/09 10:18:52;;;;;;;3.90;3.50;;;28.60;99.90;;;;;;8256426;28;20191;-74
2023/06/09 10:22:53;;;;;;;3.63;3.30;;;28.80;99.90;;;;;;8258321;28;20230;-69
2023/06/09 10:26:56;;;;;;;3.75;3.30;;;29.10;99.90;;;;;;8260400;28;20206;-72
2023/06/09 10:31:07;;;;;;;5.95;4.20;;;29.40;99.90;;;;;;8255897;28;20188;-72
2023/06/09 10:35:09;;;;;;;3.80;3.45;;;29.40;99.90;;;;;;8258587;28;20242;-72
2023/06/09 10:39:18;;;;;;;4.97;4.07;;;29.30;99.90;;;;;;8262012;28;20191;-72
2023/06/09 10:43:40;;;;;;;4.00;3.60;;;29.20;99.90;;;;;;8269914;28;20183;-70
2023/06/09 10:47:47;;;;;;;5.07;3.28;;;29.30;99.90;;;;;;8268366;28;20226;-72
2023/06/09 10:51:49;;;;;;;4.13;3.75;;;29.70;99.90;;;;;;8259363;28;20221;-71
2023/06/09 10:56:30;;;;;;;4.53;3.20;;;29.50;99.90;;;;;;8268308;28;20203;-72
2023/06/09 11:01:07;;;;;;;4.03;2.78;;;29.10;99.90;;;;;;8266466;28;20195;-73
2023/06/09 11:05:09;;;;;;;4.50;4.00;;;29.00;99.90;;;;;;8259944;28;20233;-71
2023/06/09 11:09:13;;;;;;;5.38;4.55;;;28.80;99.90;;;;;;8266643;28;20196;-73
2023/06/09 11:13:36;;;;;;;5.15;4.30;;;28.60;99.90;;;;;;8269145;28;20221;-71
2023/06/09 11:17:39;;;;;;;4.88;4.47;;;28.70;99.90;;;;;;8270422;28;20183;-71
2023/06/09 11:22:08;;;;;;;6.07;4.55;;;28.90;99.90;;;;;;8261109;28;20195;-72
2023/06/09 11:26:42;;;;;;;6.80;5.43;;;28.90;99.90;;;;;;8270365;28;20235;-73
2023/06/09 11:31:05;;;;;;;5.20;4.40;;;29.00;99.90;;;;;;8240367;28;20223;-73
2023/06/09 11:35:06;;;;;;;4.63;4.22;;;29.50;99.90;;;;;;8256734;28;20255;-72
2023/06/09 11:39:07;;;;;;;5.35;4.78;;;29.60;99.90;;;;;;8273342;28;20193;-75
2023/06/09 11:43:10;;;;;;;5.25;4.75;;;29.80;99.90;;;;;;8265345;28;20195;-75
2023/06/09 11:47:28;;;;;;;4.97;4.32;;;29.90;99.90;;;;;;8271269;28;20219;-73
2023/06/09 11:51:29;;;;;;;5.65;5.05;;;30.20;99.90;;;;;;8277884;28;20187;-73
2023/06/09 11:55:30;;;;;;;4.97;4.50;;;30.20;99.90;;;;;;8278795;28;20219;-73
2023/06/09 11:59:33;;;;;;;5.82;5.15;;;30.00;99.90;;;;;;8290290;28;20187;-75
2023/06/09 12:03:36;;;;;;;5.40;4.90;;;30.00;99.90;;;;;;8269540;28;20218;-74
2023/06/09 12:07:43;;;;;;;5.15;4.30;;;30.40;99.90;;;;;;8260946;28;20219;-74
2023/06/09 12:11:51;;;;;;;4.57;4.07;;;30.60;99.90;;;;;;8268676;28;20179;-73
2023/06/09 12:15:53;;;;;;;4.75;4.35;;;30.90;99.90;;;;;;8263988;28;20184;-72
2023/06/09 12:20:17;;;;;;;3.60;3.30;;;30.80;99.90;;;;;;8282660;28;20214;-78
2023/06/09 12:24:18;;;;;;;3.30;2.92;;;30.90;99.90;;;;;;8266319;28;20212;-68
2023/06/09 12:28:23;;;;;;;3.33;2.90;;;30.50;99.90;;;;;;8261468;28;20204;-70
2023/06/09 12:32:24;;;;;;;2.78;2.58;;;29.60;99.90;;;;;;8259924;28;20241;-76
2023/06/09 12:36:26;;;;;;;3.47;3.03;;;29.20;99.90;;;;;;8259025;28;20426;-75
2023/06/09 12:40:27;;;;;;;3.92;2.78;;;29.20;99.90;;;;;;8256021;28;20195;-69
2023/06/09 12:44:28;;;;;;;3.08;2.78;;;29.10;99.90;;;;;;8273138;28;20187;-71
2023/06/09 12:48:29;;;;;;;3.40;3.10;;;29.10;99.90;;;;;;8267219;28;20242;-76
2023/06/09 12:52:33;;;;;;;3.90;2.97;;;28.90;99.90;;;;;;8274303;28;20190;-67
2023/06/09 12:56:41;;;;;;;5.05;2.80;;;28.80;99.90;;;;;;8261132;28;20190;-70
2023/06/09 13:00:46;;;;;;;6.25;3.00;;;28.80;99.90;;;;;;8266140;28;20301;-77
2023/06/09 13:04:47;;;;;;;5.70;3.40;;;28.90;99.90;;;;;;8263468;28;20223;-74
2023/06/09 13:08:48;;;;;;;5.70;3.20;;;29.10;99.90;;;;;;8259872;28;20215;-73
2023/06/09 13:12:51;;;;;;;3.30;2.40;;;29.20;99.90;;;;;;8277911;28;20206;-70
2023/06/09 13:16:52;;;;;;;5.57;3.60;;;29.20;99.90;;;;;;8257303;28;20202;-74
2023/06/09 13:20:53;;;;;;;3.70;3.30;;;29.00;99.90;;;;;;8284619;28;20297;-69
2023/06/09 13:24:54;;;;;;;3.30;3.00;;;29.10;99.90;;;;;;8271342;28;20188;-71
2023/06/09 13:28:55;;;;;;;6.68;2.90;;;29.20;99.90;;;;;;8270188;28;20296;-70
2023/06/09 13:32:57;;;;;;;3.58;3.28;;;29.50;99.90;;;;;;8253253;28;20182;-68
2023/06/09 13:36:58;;;;;;;4.18;3.03;;;29.70;99.90;;;;;;8269180;28;20188;-69
2023/06/09 13:40:59;;;;;;;4.78;4.20;;;29.50;99.90;;;;;;8257428;28;20203;-67
2023/06/09 13:45:00;;;;;;;4.50;3.05;;;29.20;99.90;;;;;;8267296;28;20184;-69
2023/06/09 13:49:04;;;;;;;3.25;2.90;;;29.20;99.90;;;;;;8252949;28;20215;-67
2023/06/09 13:53:05;;;;;;;6.00;3.40;;;29.50;99.90;;;;;;8265850;28;20281;-67
2023/06/09 13:57:06;;;;;;;4.00;3.25;;;29.50;99.90;;;;;;8256999;28;20194;-69
2023/06/09 14:01:07;;;;;;;3.10;2.80;;;29.30;99.90;;;;;;8282398;28;20188;-68
2023/06/09 14:05:15;;;;;;;6.30;3.65;;;29.20;99.90;;;;;;8254999;28;20278;-67
2023/06/09 14:09:16;;;;;;;8.75;5.35;;;29.00;99.90;;;;;;8255718;28;20273;-68
2023/06/09 14:13:17;;;;;;;3.88;3.25;;;29.10;99.90;;;;;;8267797;28;20184;-67
2023/06/09 14:17:18;;;;;;;5.68;4.68;;;29.40;99.90;;;;;;8255111;28;20278;-71
2023/06/09 14:21:20;;;;;;;7.05;4.60;;;29.90;99.90;;;;;;8253191;28;20195;-69
2023/06/09 14:25:21;;;;;;;5.65;4.80;;;30.00;99.90;;;;;;8273806;28;20191;-69
2023/06/09 14:29:22;;;;;;;6.72;4.63;;;29.50;99.90;;;;;;8267829;28;20179;-71
2023/06/09 14:33:23;;;;;;;4.85;4.43;;;29.10;99.90;;;;;;8256163;28;20194;-71
2023/06/09 14:37:24;;;;;;;5.32;4.53;;;28.70;99.90;;;;;;8251842;28;20192;-70
2023/06/09 14:41:25;;;;;;;5.47;4.80;;;28.50;99.90;;;;;;8268006;28;20247;-69
2023/06/09 14:45:26;;;;;;;5.88;4.95;;;28.30;99.90;;;;;;8249253;28;20187;-73
2023/06/09 14:49:27;;;;;;;6.10;5.05;;;28.50;99.90;;;;;;8268752;28;20191;-71
2023/06/09 14:53:28;;;;;;;5.18;4.68;;;28.60;99.90;;;;;;8253387;28;20190;-69
2023/06/09 14:57:29;;;;;;;8.15;4.97;;;28.60;99.90;;;;;;8253393;28;20199;-68
2023/06/09 15:01:30;;;;;;;6.05;5.28;;;28.40;99.90;;;;;;8252074;28;20218;-69
2023/06/09 15:05:32;;;;;;;6.57;5.38;;;28.20;99.90;;;;;;8251825;28;20227;-72
2023/06/09 15:09:36;;;;;;;6.00;5.47;;;27.80;99.90;;;;;;8253335;28;20180;-71
2023/06/09 15:13:37;;;;;;;6.85;4.85;;;27.70;99.90;;;;;;8249982;28;20191;-70
2023/06/09 15:17:41;;;;;;;15.45;7.03;;;27.40;99.90;;;;;;8277345;28;20276;-69
2023/06/09 15:21:42;;;;;;;11.27;5.47;;;27.50;99.90;;;;;;8272463;28;20280;-66
2023/06/09 15:25:44;;;;;;;7.32;5.22;;;27.60;99.90;;;;;;8257902;28;20213;-69
2023/06/09 15:29:45;;;;;;;6.45;5.22;;;27.50;99.90;;;;;;8261030;28;20218;-71
2023/06/09 15:33:47;;;;;;;8.18;5.18;;;27.40;99.90;;;;;;8259492;28;20192;-67
2023/06/09 15:37:48;;;;;;;11.80;6.32;;;27.50;99.90;;;;;;8256977;28;20190;-69
2023/06/09 15:41:49;;;;;;;7.63;5.88;;;27.60;99.90;;;;;;8252590;28;20194;-72
2023/06/09 15:45:53;;;;;;;6.75;5.22;;;27.70;99.90;;;;;;8259829;28;20402;-71
2023/06/09 15:50:06;;;;;;;7.90;5.38;;;27.60;99.90;;;;;;8255964;28;20193;-70
2023/06/09 15:54:07;;;;;;;5.63;5.13;;;27.30;99.90;;;;;;8271775;28;20219;-70
2023/06/09 15:58:14;;;;;;;6.80;5.82;;;27.10;99.90;;;;;;8264210;28;20180;-69
2023/06/09 16:02:15;;;;;;;10.43;5.50;;;26.80;99.90;;;;;;8275024;28;20187;-71
2023/06/09 16:06:16;;;;;;;5.57;5.05;;;26.50;99.90;;;;;;8273756;28;20211;-67
2023/06/09 16:10:17;;;;;;;7.45;5.88;;;26.50;99.90;;;;;;8267025;28;20217;-67
2023/06/09 16:14:18;;;;;;;7.63;5.93;;;26.60;99.90;;;;;;8258212;28;20258;-68
2023/06/09 16:18:21;;;;;;;7.53;5.60;;;26.60;99.90;;;;;;8265062;28;20231;-68
2023/06/09 16:22:27;;;;;;;7.03;5.88;;;26.60;99.90;;;;;;8255995;28;20182;-68
2023/06/09 16:26:28;;;;;;;5.60;5.10;;;26.30;99.90;;;;;;8286928;28;20208;-69
2023/06/09 16:30:30;;;;;;;7.82;6.10;;;26.20;99.90;;;;;;8262229;28;20222;-67
2023/06/09 16:34:31;;;;;;;6.35;5.22;;;26.30;99.90;;;;;;8253467;28;20211;-67
2023/06/09 16:38:35;;;;;;;5.88;4.97;;;26.40;99.90;;;;;;8268066;28;20184;-66
2023/06/09 16:42:36;;;;;;;6.22;5.63;;;26.50;99.90;;;;;;8255032;28;20222;-68
2023/06/09 16:46:37;;;;;;;6.75;4.95;;;26.70;99.90;;;;;;8266457;28;20203;-67
2023/06/09 16:50:38;;;;;;;6.20;5.15;;;26.80;99.90;;;;;;8269959;28;20186;-68
2023/06/09 16:54:39;;;;;;;6.35;5.50;;;26.90;99.90;;;;;;8269916;28;20171;-70
2023/06/09 16:58:40;;;;;;;12.43;5.53;;;26.80;99.90;;;;;;8269365;28;20199;-70
2023/06/09 17:02:41;;;;;;;8.38;5.90;;;26.70;99.90;;;;;;8275048;28;20330;-68
2023/06/09 17:06:42;;;;;;;5.38;4.80;;;26.60;99.90;;;;;;8254854;28;20212;-69
2023/06/09 17:10:43;;;;;;;5.95;5.28;;;26.80;99.90;;;;;;8270376;28;20219;-68
2023/06/09 17:14:47;;;;;;;7.60;4.90;;;27.00;99.90;;;;;;8257045;28;20184;-67
2023/06/09 17:18:48;;;;;;;5.43;4.95;;;27.80;99.90;;;;;;8268096;28;20286;-68
2023/06/09 17:22:49;;;;;;;6.57;4.32;;;28.90;99.90;;;;;;8254852;28;20256;-68
2023/06/09 17:26:52;;;;;;;4.57;4.07;;;29.40;99.90;;;;;;8257632;28;20195;-67
2023/06/09 17:30:56;;;;;;;5.00;4.50;;;29.50;99.90;;;;;;8269858;28;20183;-67
2023/06/09 17:34:59;;;;;;;5.28;3.83;;;29.60;99.90;;;;;;8267668;28;20180;-70
2023/06/09 17:39:00;;;;;;;6.32;4.90;;;29.90;99.90;;;;;;8273429;28;20198;-68
2023/06/09 17:43:01;;;;;;;4.30;3.90;;;30.50;99.90;;;;;;8253316;28;20188;-68
2023/06/09 17:47:05;;;;;;;3.95;3.55;;;31.40;99.90;;;;;;8256998;28;20203;-74
2023/06/09 17:51:06;;;;;;;3.97;3.58;;;32.20;99.90;;;;;;8254101;28;20190;-68
2023/06/09 17:55:08;;;;;;;4.07;3.78;;;32.80;99.90;;;;;;8259271;28;20179;-68
2023/06/09 17:59:10;;;;;;;6.43;3.85;;;33.40;99.90;;;;;;8254924;28;20179;-68
2023/06/09 18:03:14;;;;;;;4.40;4.00;;;33.60;99.90;;;;;;8269602;28;20235;-69
2023/06/09 18:07:15;;;;;;;5.43;3.97;;;33.80;99.90;;;;;;8257020;28;20211;-67
2023/06/09 18:11:16;;;;;;;4.38;3.97;;;34.00;99.90;;;;;;8255637;28;20184;-68
2023/06/09 18:15:18;;;;;;;4.70;4.13;;;34.00;99.90;;;;;;8270893;28;20187;-68
2023/06/09 18:19:19;;;;;;;5.18;4.03;;;33.90;99.90;;;;;;8265753;28;20214;-68
2023/06/09 18:23:20;;;;;;;5.40;3.45;;;33.80;99.90;;;;;;8250883;28;20190;-68
2023/06/09 18:27:21;;;;;;;4.50;3.90;;;33.60;99.90;;;;;;8254845;28;20208;-68
2023/06/09 18:31:22;;;;;;;5.30;3.90;;;33.30;99.90;;;;;;8256623;28;20206;-68
2023/06/09 18:35:23;;;;;;;3.92;3.50;;;33.00;99.90;;;;;;8269090;28;20174;-68
2023/06/09 18:39:24;;;;;;;4.35;3.92;;;32.60;99.90;;;;;;8283624;28;20245;-68
2023/06/09 18:43:25;;;;;;;5.28;3.80;;;32.00;99.90;;;;;;8266027;28;20215;-68
2023/06/09 18:47:26;;;;;;;4.78;4.30;;;31.30;99.90;;;;;;8284384;28;20218;-70
2023/06/09 18:51:27;;;;;;;4.35;3.95;;;30.30;99.90;;;;;;8282066;28;20184;-69
2023/06/09 18:55:28;;;;;;;5.25;4.75;;;29.10;99.90;;;;;;8250750;28;20184;-68
2023/06/09 18:59:29;;;;;;;5.50;5.00;;;28.10;99.90;;;;;;8277631;28;20191;-68
2023/06/09 19:03:30;;;;;;;5.72;5.10;;;27.20;99.90;;;;;;8265325;28;20281;-67
2023/06/09 19:07:31;;;;;;;4.90;4.40;;;26.50;99.90;;;;;;8264722;28;20218;-67
2023/06/09 19:11:32;;;;;;;5.40;4.88;;;25.90;99.90;;;;;;8281220;28;20195;-70
2023/06/09 19:15:37;;;;;;;7.22;4.85;;;25.50;99.90;;;;;;8269318;28;20199;-67
2023/06/09 19:19:38;;;;;;;5.13;4.27;;;24.90;99.90;;;;;;8264220;28;20190;-72
2023/06/09 19:23:40;;;;;;;4.70;3.47;;;24.30;99.90;;;;;;8255584;28;20273;-72
2023/06/09 19:27:41;;;;;;;3.60;2.70;;;23.70;99.90;;;;;;8284756;28;20249;-70
2023/06/09 19:31:42;;;;;;;3.40;2.30;;;23.20;99.90;;;;;;8268678;28;20191;-68
2023/06/09 19:35:43;;;;;;;6.60;3.10;;;22.70;99.90;;;;;;8269681;28;20218;-68
2023/06/09 19:39:44;;;;;;;4.57;2.43;;;21.70;99.90;;;;;;8254034;28;20191;-63
2023/06/09 19:43:45;;;;;;;3.03;2.33;;;20.80;99.90;;;;;;8283097;28;20207;-63
2023/06/09 19:47:46;;;;;;;6.27;2.80;;;20.20;99.90;;;;;;8253014;28;20218;-63
2023/06/09 19:51:49;;;;;;;2.97;2.67;;;19.80;1.00;;;;;;8249997;28;20255;-64
2023/06/09 19:55:51;;;;;;;3.13;2.53;;;19.50;1.00;;;;;;8247047;28;20283;-64
2023/06/09 19:59:53;;;;;;;5.10;2.53;;;19.20;1.00;;;;;;8266739;28;20187;-62
2023/06/09 20:03:54;;;;;;;5.07;2.47;;;19.00;1.00;;;;;;8262500;28;20216;-63
2023/06/09 20:07:55;;;;;;;2.53;2.33;;;19.00;1.00;;;;;;8258581;28;20246;-63
2023/06/09 20:11:56;;;;;;;3.37;2.60;;;18.90;1.00;;;;;;8268132;28;20266;-64
2023/06/09 20:15:58;;;;;;;5.00;2.77;;;18.90;1.00;;;;;;8270580;28;20237;-64
2023/06/09 20:20:04;;;;;;;3.63;2.63;;;18.80;1.00;;;;;;8259175;28;20244;-62
2023/06/09 20:24:06;;;;;;;2.83;2.53;;;18.70;1.00;;;;;;8272574;28;20227;-65
2023/06/09 20:28:07;;;;;;;3.10;2.80;;;18.60;18.10;;;;;;8268704;28;20302;-65
2023/06/09 20:32:09;;;;;;;4.37;2.93;;;18.50;49.20;;;;;;8268915;28;20199;-63
2023/06/09 20:36:10;;;;;;;3.57;3.10;;;18.40;92.40;;;;;;8269975;28;20190;-64
2023/06/09 20:40:12;;;;;;;4.43;2.83;;;18.20;99.90;;;;;;8260132;28;20196;-63
2023/06/09 20:44:13;;;;;;;4.37;2.80;;;18.10;99.90;;;;;;8255173;28;20202;-67
2023/06/09 20:48:17;;;;;;;2.87;2.67;;;18.00;99.90;;;;;;8271892;28;20219;-62
2023/06/09 20:52:18;;;;;;;3.30;3.00;;;18.00;99.90;;;;;;8285883;28;20306;-65
2023/06/09 20:56:20;;;;;;;3.57;3.10;;;17.90;99.90;;;;;;8261237;28;20244;-63
2023/06/09 21:00:21;;;;;;;3.67;3.37;;;17.80;99.90;;;;;;8258613;28;20195;-63